< < Back
Terminal Aerodrome Forecast


Current Version              Previous Versions:   1  2  3  4  5  6  7  8  9  

Terminal Aerodrome Forecast

051
FTUS42 KJAX 170500
TAFGNV
TAF
KGNV 170525Z 1706/1806 25005KT P6SM SCT005 BKN100
      TEMPO 1708/1712 BKN005
     FM171400 29005KT P6SM VCSH SCT025 BKN100
     FM171800 32005KT P6SM VCTS SCT035CB BKN120
     FM180200 VRB03KT P6SM SCT200=



Latest METAR

778
SAUS70 KWBC 170700 RRM
MTRGNV
METAR KGNV 170653Z AUTO 29003KT 10SM FEW046 OVC060 22/22 A2994 RMK AO2
SLP138 T02170217


USA.gov is the U.S. government's official web portal to all federal, state and local government web resources and services.